createdAt,value
2018-08-19T00:00:30.607Z,96138.00
2018-08-19T00:01:02.850Z,96141.00
2018-08-19T00:01:35.005Z,96140.00
2018-08-19T00:02:07.086Z,96137.00
2018-08-19T00:02:39.415Z,96135.00
2018-08-19T00:03:11.486Z,96142.00
2018-08-19T00:03:43.608Z,96139.00
2018-08-19T00:04:15.777Z,96144.00
2018-08-19T00:04:47.882Z,96139.00
2018-08-19T00:05:20.038Z,96142.00
2018-08-19T00:05:52.309Z,96143.00
2018-08-19T00:06:24.430Z,96143.00
2018-08-19T00:06:56.543Z,96142.00
2018-08-19T00:07:28.649Z,96142.00
2018-08-19T00:08:00.832Z,96145.00
2018-08-19T00:08:32.929Z,96148.00
2018-08-19T00:09:05.022Z,96142.00
2018-08-19T00:09:37.279Z,96144.00
2018-08-19T00:10:09.376Z,96142.00
2018-08-19T00:10:41.478Z,96142.00
2018-08-19T00:11:13.667Z,96147.00
2018-08-19T00:11:46.147Z,96144.00
2018-08-19T00:12:18.279Z,96144.00
2018-08-19T00:12:50.510Z,96142.00
2018-08-19T00:13:22.637Z,96146.00
2018-08-19T00:13:54.714Z,96142.00
2018-08-19T00:14:26.871Z,96145.00
2018-08-19T00:14:59.117Z,96147.00
2018-08-19T00:15:31.230Z,96140.00
2018-08-19T00:16:03.357Z,96142.00
2018-08-19T00:16:35.445Z,96137.00
2018-08-19T00:17:07.558Z,96141.00
2018-08-19T00:17:39.661Z,96137.00
2018-08-19T00:18:12.095Z,96143.00
2018-08-19T00:18:44.363Z,96147.00
2018-08-19T00:19:16.421Z,96147.00
2018-08-19T00:19:48.514Z,96143.00
2018-08-19T00:20:20.629Z,96147.00
2018-08-19T00:20:52.959Z,96142.00
2018-08-19T00:21:25.135Z,96140.00
2018-08-19T00:21:57.369Z,96141.00
2018-08-19T00:22:29.470Z,96145.00
2018-08-19T00:23:01.573Z,96143.00
2018-08-19T00:23:33.644Z,96144.00
2018-08-19T00:24:05.779Z,96146.00
2018-08-19T00:24:37.900Z,96145.00
2018-08-19T00:25:09.973Z,96145.00
2018-08-19T00:25:42.045Z,96144.00
2018-08-19T00:26:14.117Z,96141.00
2018-08-19T00:26:46.207Z,96142.00
2018-08-19T00:27:18.306Z,96141.00
2018-08-19T00:27:50.536Z,96141.00
2018-08-19T00:28:22.687Z,96145.00
2018-08-19T00:28:55.012Z,96145.00
2018-08-19T00:29:27.161Z,96147.00
2018-08-19T00:29:59.254Z,96148.00
2018-08-19T00:30:31.348Z,96148.00
2018-08-19T00:31:03.535Z,96148.00
2018-08-19T00:31:35.646Z,96147.00
2018-08-19T00:32:07.779Z,96152.00
2018-08-19T00:32:40.001Z,96151.00
2018-08-19T00:33:12.103Z,96149.00
2018-08-19T00:33:44.228Z,96148.00
2018-08-19T00:34:16.498Z,96147.00
2018-08-19T00:34:48.640Z,96151.00
2018-08-19T00:35:20.776Z,96147.00
2018-08-19T00:35:52.881Z,96149.00
2018-08-19T00:36:24.997Z,96150.00
2018-08-19T00:36:57.100Z,96145.00
2018-08-19T00:37:29.183Z,96145.00
2018-08-19T00:38:01.293Z,96146.00
2018-08-19T00:38:33.539Z,96147.00
2018-08-19T00:39:05.974Z,96147.00
2018-08-19T00:39:38.060Z,96148.00
2018-08-19T00:40:10.178Z,96147.00
2018-08-19T00:40:42.262Z,96146.00
2018-08-19T00:41:14.379Z,96148.00
2018-08-19T00:41:46.462Z,96148.00
2018-08-19T00:42:18.603Z,96146.00
2018-08-19T00:42:50.777Z,96147.00
2018-08-19T00:43:22.917Z,96144.00
2018-08-19T00:43:55.046Z,96147.00
2018-08-19T00:44:27.206Z,96144.00
2018-08-19T00:44:59.284Z,96149.00
2018-08-19T00:45:31.467Z,96147.00
2018-08-19T00:46:03.568Z,96149.00
2018-08-19T00:46:35.821Z,96145.00
2018-08-19T00:47:08.051Z,96147.00
2018-08-19T00:47:40.161Z,96147.00
2018-08-19T00:48:12.263Z,96144.00
2018-08-19T00:48:44.409Z,96149.00
2018-08-19T00:49:16.537Z,96151.00
2018-08-19T00:49:48.622Z,96149.00
2018-08-19T00:50:20.887Z,96151.00
2018-08-19T00:50:53.001Z,96150.00
2018-08-19T00:51:25.106Z,96147.00
2018-08-19T00:51:57.325Z,96149.00
2018-08-19T00:52:29.542Z,96148.00
2018-08-19T00:53:01.665Z,96149.00
2018-08-19T00:53:33.778Z,96150.00
2018-08-19T00:54:05.888Z,96153.00
2018-08-19T00:54:38.006Z,96152.00
2018-08-19T00:55:10.094Z,96151.00
2018-08-19T00:55:42.305Z,96153.00
2018-08-19T00:56:14.525Z,96152.00
2018-08-19T00:56:46.717Z,96152.00
2018-08-19T00:57:18.790Z,96151.00
2018-08-19T00:57:51.026Z,96154.00
2018-08-19T00:58:23.313Z,96151.00
2018-08-19T00:58:55.377Z,96152.00
2018-08-19T00:59:27.630Z,96157.00
2018-08-19T00:59:59.737Z,96155.00
2018-08-19T01:00:31.806Z,96154.00
2018-08-19T01:01:03.951Z,96156.00
2018-08-19T01:01:36.002Z,96156.00
2018-08-19T01:02:08.149Z,96155.00
2018-08-19T01:02:40.257Z,96152.00
2018-08-19T01:03:12.696Z,96155.00
2018-08-19T01:03:44.815Z,96153.00
2018-08-19T01:04:17.097Z,96155.00
2018-08-19T01:04:49.223Z,96156.00
2018-08-19T01:05:21.290Z,96152.00
2018-08-19T01:05:53.380Z,96153.00
2018-08-19T01:06:25.533Z,96154.00
2018-08-19T01:06:57.618Z,96156.00
2018-08-19T01:07:29.907Z,96151.00
2018-08-19T01:08:01.971Z,96156.00
2018-08-19T01:08:34.052Z,96153.00
2018-08-19T01:09:06.182Z,96155.00
2018-08-19T01:09:38.305Z,96155.00
2018-08-19T01:10:10.425Z,96153.00
2018-08-19T01:10:42.629Z,96155.00
2018-08-19T01:11:14.931Z,96150.00
2018-08-19T01:11:47.127Z,96154.00
2018-08-19T01:12:19.190Z,96152.00
2018-08-19T01:12:51.421Z,96156.00
2018-08-19T01:13:23.658Z,96157.00
2018-08-19T01:13:55.764Z,96158.00
2018-08-19T01:14:27.905Z,96161.00
2018-08-19T01:15:00.034Z,96163.00
2018-08-19T01:15:32.245Z,96160.00
2018-08-19T01:16:04.389Z,96158.00
2018-08-19T01:16:36.532Z,96157.00
2018-08-19T01:17:08.937Z,96155.00
2018-08-19T01:17:41.158Z,96155.00
2018-08-19T01:18:13.341Z,96159.00
2018-08-19T01:18:45.538Z,96154.00
2018-08-19T01:19:17.932Z,96152.00
2018-08-19T01:19:50.085Z,96155.00
2018-08-19T01:20:22.214Z,96153.00
2018-08-19T01:20:54.285Z,96153.00
2018-08-19T01:21:26.416Z,96154.00
2018-08-19T01:21:58.769Z,96150.00
2018-08-19T01:22:30.986Z,96155.00
2018-08-19T01:23:03.124Z,96157.00
2018-08-19T01:23:35.293Z,96157.00
2018-08-19T01:24:07.387Z,96159.00
2018-08-19T01:24:39.459Z,96158.00
2018-08-19T01:25:11.554Z,96156.00
2018-08-19T01:25:43.679Z,96154.00
2018-08-19T01:26:16.063Z,96157.00
2018-08-19T01:26:48.166Z,96155.00
2018-08-19T01:27:20.361Z,96156.00
2018-08-19T01:27:52.436Z,96157.00
2018-08-19T01:28:24.521Z,96153.00
2018-08-19T01:28:56.641Z,96150.00
2018-08-19T01:29:29.054Z,96155.00
2018-08-19T01:30:01.169Z,96151.00
2018-08-19T01:30:33.709Z,96153.00
2018-08-19T01:31:05.858Z,96153.00
2018-08-19T01:31:37.951Z,96152.00
2018-08-19T01:32:10.030Z,96152.00
2018-08-19T01:32:42.113Z,96153.00
2018-08-19T01:33:14.476Z,96153.00
2018-08-19T01:33:46.597Z,96151.00
2018-08-19T01:34:18.697Z,96155.00
2018-08-19T01:34:50.824Z,96154.00
2018-08-19T01:35:23.061Z,96157.00
2018-08-19T01:35:55.162Z,96153.00
2018-08-19T01:36:27.235Z,96152.00
2018-08-19T01:36:59.321Z,96158.00
2018-08-19T01:37:31.509Z,96159.00
2018-08-19T01:38:03.612Z,96156.00
2018-08-19T01:38:35.737Z,96156.00
2018-08-19T01:39:07.864Z,96152.00
2018-08-19T01:39:39.960Z,96154.00
2018-08-19T01:40:12.249Z,96158.00
2018-08-19T01:40:44.531Z,96156.00
2018-08-19T01:41:16.593Z,96154.00
2018-08-19T01:41:48.664Z,96153.00
2018-08-19T01:42:20.885Z,96155.00
2018-08-19T01:42:52.975Z,96153.00
2018-08-19T01:43:25.079Z,96156.00
2018-08-19T01:43:57.226Z,96153.00
2018-08-19T01:44:29.314Z,96156.00
2018-08-19T01:45:01.626Z,96153.00
2018-08-19T01:45:33.720Z,96152.00
2018-08-19T01:46:05.819Z,96155.00
2018-08-19T01:46:37.991Z,96153.00
2018-08-19T01:47:10.111Z,96154.00
2018-08-19T01:47:42.205Z,96155.00
2018-08-19T01:48:14.282Z,96154.00
2018-08-19T01:48:46.357Z,96156.00
2018-08-19T01:49:18.422Z,96156.00
2018-08-19T01:49:50.532Z,96153.00
2018-08-19T01:50:22.625Z,96152.00
2018-08-19T01:50:54.940Z,96152.00
2018-08-19T01:51:27.203Z,96153.00
2018-08-19T01:51:59.326Z,96156.00
2018-08-19T01:52:31.643Z,96153.00
2018-08-19T01:53:03.934Z,96156.00
2018-08-19T01:53:36.197Z,96155.00
2018-08-19T01:54:08.336Z,96158.00
2018-08-19T01:54:40.532Z,96154.00
2018-08-19T01:55:12.703Z,96158.00
2018-08-19T01:55:44.782Z,96154.00
2018-08-19T01:56:16.875Z,96156.00
2018-08-19T01:56:49.079Z,96156.00
2018-08-19T01:57:21.136Z,96156.00
2018-08-19T01:57:53.443Z,96155.00
2018-08-19T01:58:25.510Z,96154.00
2018-08-19T01:58:57.604Z,96161.00
2018-08-19T01:59:29.670Z,96159.00
2018-08-19T02:00:01.864Z,96156.00
2018-08-19T02:00:33.928Z,96162.00
2018-08-19T02:01:05.986Z,96157.00
2018-08-19T02:01:38.226Z,96159.00
2018-08-19T02:02:10.411Z,96159.00
2018-08-19T02:02:42.641Z,96159.00
2018-08-19T02:03:14.856Z,96159.00
2018-08-19T02:03:47.044Z,96160.00
2018-08-19T02:04:19.201Z,96160.00
2018-08-19T02:04:51.288Z,96159.00
2018-08-19T02:05:23.579Z,96165.00
2018-08-19T02:05:55.663Z,96159.00
2018-08-19T02:06:27.874Z,96158.00
2018-08-19T02:07:00.220Z,96163.00
2018-08-19T02:07:32.457Z,96158.00
2018-08-19T02:08:04.550Z,96161.00
2018-08-19T02:08:36.786Z,96158.00
2018-08-19T02:09:08.898Z,96160.00
2018-08-19T02:09:41.151Z,96160.00
2018-08-19T02:10:13.268Z,96159.00
2018-08-19T02:10:45.320Z,96160.00
2018-08-19T02:11:17.421Z,96160.00
2018-08-19T02:11:49.588Z,96157.00
2018-08-19T02:12:21.913Z,96158.00
2018-08-19T02:12:54.082Z,96161.00
2018-08-19T02:13:26.192Z,96159.00
2018-08-19T02:13:58.373Z,96157.00
2018-08-19T02:14:30.486Z,96160.00
2018-08-19T02:15:02.598Z,96160.00
2018-08-19T02:15:34.761Z,96163.00
2018-08-19T02:16:06.907Z,96162.00
2018-08-19T02:16:38.987Z,96158.00
2018-08-19T02:17:11.095Z,96164.00
2018-08-19T02:17:43.298Z,96161.00
2018-08-19T02:18:15.450Z,96164.00
2018-08-19T02:18:47.638Z,96158.00
2018-08-19T02:19:19.715Z,96161.00
2018-08-19T02:19:51.808Z,96161.00
2018-08-19T02:20:23.899Z,96162.00
2018-08-19T02:20:56.442Z,96159.00
2018-08-19T02:21:28.515Z,96155.00
2018-08-19T02:22:00.617Z,96160.00
2018-08-19T02:22:32.696Z,96157.00
2018-08-19T02:23:04.837Z,96156.00
2018-08-19T02:23:36.960Z,96155.00
2018-08-19T02:24:09.020Z,96150.00
2018-08-19T02:24:41.325Z,96154.00
2018-08-19T02:25:13.658Z,96155.00
2018-08-19T02:25:45.897Z,96155.00
2018-08-19T02:26:18.128Z,96156.00
2018-08-19T02:26:50.220Z,96161.00
2018-08-19T02:27:22.294Z,96154.00
2018-08-19T02:27:54.448Z,96157.00
2018-08-19T02:28:26.719Z,96153.00
2018-08-19T02:28:58.982Z,96156.00
2018-08-19T02:29:31.201Z,96154.00
2018-08-19T02:30:03.278Z,96155.00
2018-08-19T02:30:35.405Z,96155.00
2018-08-19T02:31:07.595Z,96157.00
2018-08-19T02:31:39.696Z,96156.00
2018-08-19T02:32:11.923Z,96156.00
2018-08-19T02:32:43.986Z,96159.00
2018-08-19T02:33:16.058Z,96157.00
2018-08-19T02:33:48.170Z,96155.00
2018-08-19T02:34:20.247Z,96155.00
2018-08-19T02:34:52.495Z,96155.00
2018-08-19T02:35:24.581Z,96156.00
2018-08-19T02:35:56.717Z,96155.00
2018-08-19T02:36:28.845Z,96148.00
2018-08-19T02:37:00.922Z,96149.00
2018-08-19T02:37:33.074Z,96155.00
2018-08-19T02:38:05.133Z,96153.00
2018-08-19T02:38:37.506Z,96147.00
2018-08-19T02:39:09.570Z,96152.00
2018-08-19T02:39:41.643Z,96151.00
2018-08-19T02:40:13.825Z,96149.00
2018-08-19T02:40:46.084Z,96149.00
2018-08-19T02:41:18.196Z,96146.00
2018-08-19T02:41:50.297Z,96151.00
2018-08-19T02:42:22.512Z,96143.00
2018-08-19T02:42:54.645Z,96147.00
2018-08-19T02:43:27.055Z,96147.00
2018-08-19T02:43:59.205Z,96147.00
2018-08-19T02:44:31.305Z,96147.00
2018-08-19T02:45:03.664Z,96145.00
2018-08-19T02:45:35.817Z,96142.00
2018-08-19T02:46:07.862Z,96142.00
2018-08-19T02:46:39.959Z,96148.00
2018-08-19T02:47:12.050Z,96146.00
2018-08-19T02:47:44.212Z,96145.00
2018-08-19T02:48:16.523Z,96145.00
2018-08-19T02:48:48.632Z,96144.00
2018-08-19T02:49:20.729Z,96146.00
2018-08-19T02:49:52.973Z,96146.00
2018-08-19T02:50:25.008Z,96148.00
2018-08-19T02:50:57.090Z,96150.00
2018-08-19T02:51:29.201Z,96147.00
2018-08-19T02:52:01.357Z,96148.00
2018-08-19T02:52:33.622Z,96147.00
2018-08-19T02:53:05.973Z,96149.00
2018-08-19T02:53:38.041Z,96149.00
2018-08-19T02:54:10.116Z,96149.00
2018-08-19T02:54:42.223Z,96150.00
2018-08-19T02:55:14.341Z,96149.00
2018-08-19T02:55:46.422Z,96145.00
2018-08-19T02:56:18.476Z,96148.00
2018-08-19T02:56:50.674Z,96152.00
2018-08-19T02:57:22.757Z,96152.00
2018-08-19T02:57:54.873Z,96151.00
2018-08-19T02:58:26.952Z,96150.00
2018-08-19T02:58:59.069Z,96154.00
2018-08-19T02:59:31.262Z,96152.00
2018-08-19T03:00:03.452Z,96149.00
2018-08-19T03:00:35.507Z,96149.00
2018-08-19T03:01:07.620Z,96149.00
2018-08-19T03:01:39.687Z,96146.00
2018-08-19T03:02:11.935Z,96150.00
2018-08-19T03:02:44.023Z,96149.00
2018-08-19T03:03:16.118Z,96147.00
2018-08-19T03:03:48.235Z,96148.00
2018-08-19T03:04:20.476Z,96145.00
2018-08-19T03:04:52.644Z,96150.00
2018-08-19T03:05:24.745Z,96144.00
2018-08-19T03:05:57.054Z,96150.00
2018-08-19T03:06:29.152Z,96150.00
2018-08-19T03:07:01.293Z,96151.00
2018-08-19T03:07:33.386Z,96149.00
2018-08-19T03:08:05.487Z,96146.00
2018-08-19T03:08:37.564Z,96151.00
2018-08-19T03:09:09.668Z,96146.00
2018-08-19T03:09:41.752Z,96148.00
2018-08-19T03:10:13.902Z,96145.00
2018-08-19T03:10:46.145Z,96145.00
2018-08-19T03:11:18.251Z,96144.00
2018-08-19T03:11:50.312Z,96145.00
2018-08-19T03:12:22.411Z,96146.00
2018-08-19T03:12:54.482Z,96146.00
2018-08-19T03:13:26.553Z,96148.00
2018-08-19T03:13:58.816Z,96144.00
2018-08-19T03:14:30.880Z,96144.00
2018-08-19T03:15:02.978Z,96144.00
2018-08-19T03:15:35.089Z,96147.00
2018-08-19T03:16:07.284Z,96143.00
2018-08-19T03:16:39.402Z,96145.00
2018-08-19T03:17:11.471Z,96145.00
2018-08-19T03:17:43.686Z,96142.00
2018-08-19T03:18:15.748Z,96142.00
2018-08-19T03:18:47.863Z,96145.00
2018-08-19T03:19:20.111Z,96147.00
2018-08-19T03:19:52.153Z,96145.00
2018-08-19T03:20:24.235Z,96147.00
2018-08-19T03:20:56.344Z,96146.00
2018-08-19T03:21:28.473Z,96145.00
2018-08-19T03:22:00.549Z,96145.00
2018-08-19T03:22:32.756Z,96143.00
2018-08-19T03:23:04.872Z,96145.00
2018-08-19T03:23:37.036Z,96143.00
2018-08-19T03:24:09.165Z,96138.00
2018-08-19T03:24:41.228Z,96146.00
2018-08-19T03:25:13.372Z,96147.00
2018-08-19T03:25:45.461Z,96144.00
2018-08-19T03:26:17.680Z,96145.00
2018-08-19T03:26:49.969Z,96144.00
2018-08-19T03:27:22.076Z,96143.00
2018-08-19T03:27:54.313Z,96143.00
2018-08-19T03:28:26.388Z,96140.00
2018-08-19T03:28:58.612Z,96143.00
2018-08-19T03:29:30.759Z,96142.00
2018-08-19T03:30:02.864Z,96141.00
2018-08-19T03:30:34.959Z,96138.00
2018-08-19T03:31:07.069Z,96140.00
2018-08-19T03:31:39.376Z,96142.00
2018-08-19T03:32:11.641Z,96139.00
2018-08-19T03:32:43.794Z,96145.00
2018-08-19T03:33:15.919Z,96145.00
2018-08-19T03:33:47.973Z,96142.00
2018-08-19T03:34:20.066Z,96143.00
2018-08-19T03:34:52.133Z,96145.00
2018-08-19T03:35:24.238Z,96143.00
2018-08-19T03:35:56.443Z,96142.00
2018-08-19T03:36:28.522Z,96145.00
2018-08-19T03:37:00.600Z,96142.00
2018-08-19T03:37:32.713Z,96145.00
2018-08-19T03:38:05.089Z,96144.00
2018-08-19T03:38:37.225Z,96144.00
2018-08-19T03:39:09.354Z,96141.00
2018-08-19T03:39:41.455Z,96142.00
2018-08-19T03:40:13.584Z,96149.00
2018-08-19T03:40:45.690Z,96142.00
2018-08-19T03:41:17.785Z,96146.00
2018-08-19T03:41:49.950Z,96147.00
2018-08-19T03:42:22.033Z,96144.00
2018-08-19T03:42:54.449Z,96142.00
2018-08-19T03:43:26.502Z,96144.00
2018-08-19T03:43:58.573Z,96149.00
2018-08-19T03:44:30.704Z,96145.00
2018-08-19T03:45:02.809Z,96145.00
2018-08-19T03:45:34.889Z,96146.00
2018-08-19T03:46:07.091Z,96142.00
2018-08-19T03:46:39.277Z,96141.00
2018-08-19T03:47:11.539Z,96144.00
2018-08-19T03:47:43.733Z,96140.00
2018-08-19T03:48:15.813Z,96140.00
2018-08-19T03:48:48.011Z,96139.00
2018-08-19T03:49:20.105Z,96142.00
2018-08-19T03:49:52.454Z,96136.00
2018-08-19T03:50:24.676Z,96145.00
2018-08-19T03:50:56.797Z,96137.00
2018-08-19T03:51:28.918Z,96143.00
2018-08-19T03:52:00.965Z,96139.00
2018-08-19T03:52:33.122Z,96142.00
2018-08-19T03:53:05.280Z,96140.00
2018-08-19T03:53:37.428Z,96137.00
2018-08-19T03:54:09.657Z,96140.00
2018-08-19T03:54:41.793Z,96141.00
2018-08-19T03:55:13.888Z,96145.00
2018-08-19T03:55:45.954Z,96145.00
2018-08-19T03:56:18.081Z,96142.00
2018-08-19T03:56:50.501Z,96142.00
2018-08-19T03:57:22.823Z,96143.00
2018-08-19T03:57:55.035Z,96146.00
2018-08-19T03:58:27.239Z,96147.00
2018-08-19T03:58:59.263Z,96143.00
2018-08-19T03:59:31.360Z,96144.00
2018-08-19T04:00:03.652Z,96144.00
2018-08-19T04:00:35.940Z,96146.00
2018-08-19T04:01:08.104Z,96148.00
2018-08-19T04:01:40.205Z,96147.00
2018-08-19T04:02:12.365Z,96146.00
2018-08-19T04:02:44.445Z,96148.00
2018-08-19T04:03:16.818Z,96148.00
2018-08-19T04:03:48.979Z,96145.00
2018-08-19T04:04:21.062Z,96152.00
2018-08-19T04:04:53.133Z,96151.00
2018-08-19T04:05:25.263Z,96153.00
2018-08-19T04:05:57.409Z,96157.00
2018-08-19T04:06:29.552Z,96158.00
2018-08-19T04:07:01.750Z,96152.00
2018-08-19T04:07:34.015Z,96156.00
2018-08-19T04:08:06.085Z,96154.00
2018-08-19T04:08:38.338Z,96156.00
2018-08-19T04:09:10.580Z,96154.00
2018-08-19T04:09:42.693Z,96154.00
2018-08-19T04:10:14.770Z,96156.00
2018-08-19T04:10:46.893Z,96156.00
2018-08-19T04:11:19.149Z,96156.00
2018-08-19T04:11:51.237Z,96155.00
2018-08-19T04:12:23.408Z,96152.00
2018-08-19T04:12:55.552Z,96153.00
2018-08-19T04:13:27.817Z,96153.00
2018-08-19T04:14:00.087Z,96157.00
2018-08-19T04:14:32.217Z,96153.00
2018-08-19T04:15:04.386Z,96161.00
2018-08-19T04:15:36.626Z,96153.00
2018-08-19T04:16:08.862Z,96154.00
2018-08-19T04:16:40.974Z,96157.00
2018-08-19T04:17:13.228Z,96155.00
2018-08-19T04:17:45.294Z,96157.00
2018-08-19T04:18:17.397Z,96157.00
2018-08-19T04:18:49.479Z,96156.00
2018-08-19T04:19:21.544Z,96156.00
2018-08-19T04:19:53.753Z,96158.00
2018-08-19T04:20:25.928Z,96154.00
2018-08-19T04:20:58.069Z,96157.00
2018-08-19T04:21:30.144Z,96154.00
2018-08-19T04:22:02.236Z,96158.00
2018-08-19T04:22:34.565Z,96158.00
2018-08-19T04:23:06.686Z,96157.00
2018-08-19T04:23:38.854Z,96160.00
2018-08-19T04:24:10.841Z,96158.00
2018-08-19T04:24:42.972Z,96156.00
2018-08-19T04:25:15.033Z,96160.00
2018-08-19T04:25:47.182Z,96161.00
2018-08-19T04:26:19.395Z,96161.00
2018-08-19T04:26:51.521Z,96165.00
2018-08-19T04:27:23.818Z,96161.00
2018-08-19T04:27:56.060Z,96160.00
2018-08-19T04:28:28.134Z,96158.00
2018-08-19T04:29:00.372Z,96160.00
2018-08-19T04:29:32.625Z,96160.00
2018-08-19T04:30:04.706Z,96152.00
2018-08-19T04:30:36.813Z,96159.00
2018-08-19T04:31:09.030Z,96151.00
2018-08-19T04:31:41.093Z,96153.00
2018-08-19T04:32:13.401Z,96154.00
2018-08-19T04:32:45.508Z,96154.00
2018-08-19T04:33:17.653Z,96154.00
2018-08-19T04:33:49.794Z,96155.00
2018-08-19T04:34:21.885Z,96152.00
2018-08-19T04:34:54.013Z,96156.00
2018-08-19T04:35:26.228Z,96154.00
2018-08-19T04:35:58.437Z,96153.00
2018-08-19T04:36:30.772Z,96153.00
2018-08-19T04:37:03.131Z,96150.00
2018-08-19T04:37:35.338Z,96149.00
2018-08-19T04:38:07.401Z,96154.00
2018-08-19T04:38:39.695Z,96160.00
2018-08-19T04:39:11.764Z,96153.00
2018-08-19T04:39:43.862Z,96156.00
2018-08-19T04:40:15.947Z,96153.00
2018-08-19T04:40:48.035Z,96158.00
2018-08-19T04:41:20.137Z,96155.00
2018-08-19T04:41:52.240Z,96158.00
2018-08-19T04:42:24.633Z,96157.00
2018-08-19T04:42:56.786Z,96156.00
2018-08-19T04:43:28.964Z,96155.00
2018-08-19T04:44:01.024Z,96153.00
2018-08-19T04:44:33.132Z,96155.00
2018-08-19T04:45:05.244Z,96153.00
2018-08-19T04:45:37.326Z,96155.00
2018-08-19T04:46:09.417Z,96152.00
2018-08-19T04:46:41.506Z,96153.00
2018-08-19T04:47:13.862Z,96155.00
2018-08-19T04:47:46.009Z,96152.00
2018-08-19T04:48:18.103Z,96153.00
2018-08-19T04:48:50.368Z,96154.00
2018-08-19T04:49:22.624Z,96155.00
2018-08-19T04:49:54.746Z,96155.00
2018-08-19T04:50:26.865Z,96156.00
2018-08-19T04:50:58.950Z,96159.00
2018-08-19T04:51:31.054Z,96153.00
2018-08-19T04:52:03.394Z,96153.00
2018-08-19T04:52:35.541Z,96156.00
2018-08-19T04:53:07.758Z,96154.00
2018-08-19T04:53:40.061Z,96157.00
2018-08-19T04:54:12.203Z,96157.00
2018-08-19T04:54:44.330Z,96156.00
2018-08-19T04:55:16.530Z,96156.00
2018-08-19T04:55:48.678Z,96155.00
2018-08-19T04:56:20.848Z,96155.00
2018-08-19T04:56:53.013Z,96157.00
2018-08-19T04:57:25.205Z,96157.00
2018-08-19T04:57:57.307Z,96158.00
2018-08-19T04:58:29.383Z,96156.00
2018-08-19T04:59:01.760Z,96154.00
2018-08-19T04:59:33.858Z,96162.00
2018-08-19T05:00:05.968Z,96154.00
2018-08-19T05:00:38.022Z,96156.00
2018-08-19T05:01:10.138Z,96154.00
2018-08-19T05:01:42.214Z,96153.00
2018-08-19T05:02:14.400Z,96153.00
2018-08-19T05:02:46.455Z,96155.00
2018-08-19T05:03:18.606Z,96158.00
2018-08-19T05:03:50.744Z,96161.00
2018-08-19T05:04:22.993Z,96159.00
2018-08-19T05:04:55.055Z,96160.00
2018-08-19T05:05:27.189Z,96164.00
2018-08-19T05:05:59.268Z,96159.00
2018-08-19T05:06:31.405Z,96162.00
2018-08-19T05:07:03.503Z,96163.00
2018-08-19T05:07:35.565Z,96162.00
2018-08-19T05:08:07.676Z,96166.00
2018-08-19T05:08:39.758Z,96161.00
2018-08-19T05:09:11.809Z,96162.00
2018-08-19T05:09:44.055Z,96167.00
2018-08-19T05:10:16.285Z,96166.00
2018-08-19T05:10:48.414Z,96164.00
2018-08-19T05:11:20.647Z,96171.00
2018-08-19T05:11:52.936Z,96168.00
2018-08-19T05:12:25.100Z,96171.00
2018-08-19T05:12:57.202Z,96164.00
2018-08-19T05:13:29.414Z,96169.00
2018-08-19T05:14:01.509Z,96166.00
2018-08-19T05:14:33.637Z,96166.00
2018-08-19T05:15:05.697Z,96166.00
2018-08-19T05:15:37.866Z,96168.00
2018-08-19T05:16:10.006Z,96174.00
2018-08-19T05:16:42.153Z,96173.00
2018-08-19T05:17:14.258Z,96170.00
2018-08-19T05:17:46.395Z,96177.00
2018-08-19T05:18:18.542Z,96176.00
2018-08-19T05:18:50.630Z,96174.00
2018-08-19T05:19:22.699Z,96172.00
2018-08-19T05:19:54.809Z,96172.00
2018-08-19T05:20:26.938Z,96171.00
2018-08-19T05:20:59.013Z,96177.00
2018-08-19T05:21:31.114Z,96179.00
2018-08-19T05:22:03.256Z,96176.00
2018-08-19T05:22:35.457Z,96180.00
2018-08-19T05:23:07.665Z,96182.00
2018-08-19T05:23:39.769Z,96177.00
2018-08-19T05:24:11.842Z,96179.00
2018-08-19T05:24:43.926Z,96177.00
2018-08-19T05:25:16.009Z,96179.00
2018-08-19T05:25:48.278Z,96180.00
2018-08-19T05:26:20.375Z,96184.00
2018-08-19T05:26:52.752Z,96181.00
2018-08-19T05:27:24.879Z,96183.00
2018-08-19T05:27:56.962Z,96179.00
2018-08-19T05:28:29.125Z,96181.00
2018-08-19T05:29:01.242Z,96184.00
2018-08-19T05:29:33.326Z,96184.00
2018-08-19T05:30:05.574Z,96186.00
2018-08-19T05:30:37.689Z,96183.00
2018-08-19T05:31:09.976Z,96187.00
2018-08-19T05:31:42.085Z,96187.00
2018-08-19T05:32:14.305Z,96187.00
2018-08-19T05:32:46.446Z,96187.00
2018-08-19T05:33:18.506Z,96182.00
2018-08-19T05:33:50.721Z,96185.00
2018-08-19T05:34:22.901Z,96184.00
2018-08-19T05:34:55.109Z,96188.00
2018-08-19T05:35:27.199Z,96183.00
2018-08-19T05:35:59.322Z,96184.00
2018-08-19T05:36:31.429Z,96185.00
2018-08-19T05:37:03.567Z,96189.00
2018-08-19T05:37:35.690Z,96186.00
2018-08-19T05:38:08.387Z,96182.00
2018-08-19T05:38:40.446Z,96184.00
2018-08-19T05:39:12.521Z,96184.00
2018-08-19T05:39:44.597Z,96185.00
2018-08-19T05:40:16.692Z,96185.00
2018-08-19T05:40:48.779Z,96184.00
2018-08-19T05:41:20.890Z,96188.00
2018-08-19T05:41:53.033Z,96188.00
2018-08-19T05:42:25.090Z,96184.00
2018-08-19T05:42:57.164Z,96184.00
2018-08-19T05:43:29.359Z,96185.00
2018-08-19T05:44:01.572Z,96185.00
2018-08-19T05:44:33.677Z,96187.00
2018-08-19T05:45:05.806Z,96186.00
2018-08-19T05:45:37.958Z,96193.00
2018-08-19T05:46:10.193Z,96188.00
2018-08-19T05:46:42.494Z,96193.00
2018-08-19T05:47:14.597Z,96184.00
2018-08-19T05:47:46.755Z,96185.00
2018-08-19T05:48:19.181Z,96184.00
2018-08-19T05:48:51.295Z,96183.00
2018-08-19T05:49:23.357Z,96183.00
2018-08-19T05:49:55.445Z,96186.00
2018-08-19T05:50:27.530Z,96187.00
2018-08-19T05:50:59.721Z,96187.00
2018-08-19T05:51:31.943Z,96184.00
2018-08-19T05:52:04.125Z,96187.00
2018-08-19T05:52:36.796Z,96185.00
2018-08-19T05:53:08.946Z,96184.00
2018-08-19T05:53:41.165Z,96188.00
2018-08-19T05:54:13.292Z,96183.00
2018-08-19T05:54:45.529Z,96188.00
2018-08-19T05:55:17.725Z,96185.00
2018-08-19T05:55:49.883Z,96189.00
2018-08-19T05:56:22.079Z,96193.00
2018-08-19T05:56:54.142Z,96189.00
2018-08-19T05:57:26.233Z,96192.00
2018-08-19T05:57:58.330Z,96191.00
2018-08-19T05:58:30.396Z,96192.00
2018-08-19T05:59:02.541Z,96194.00
2018-08-19T05:59:34.598Z,96195.00
2018-08-19T06:00:06.713Z,96198.00
2018-08-19T06:00:38.933Z,96194.00
2018-08-19T06:01:11.199Z,96193.00
2018-08-19T06:01:43.291Z,96194.00
2018-08-19T06:02:15.350Z,96198.00
2018-08-19T06:02:47.456Z,96197.00
2018-08-19T06:03:19.591Z,96194.00
2018-08-19T06:03:51.829Z,96194.00
2018-08-19T06:04:23.972Z,96198.00
2018-08-19T06:04:56.114Z,96193.00
2018-08-19T06:05:28.354Z,96200.00
2018-08-19T06:06:00.543Z,96196.00
2018-08-19T06:06:32.625Z,96198.00
2018-08-19T06:07:04.845Z,96200.00
2018-08-19T06:07:37.309Z,96201.00
2018-08-19T06:08:09.421Z,96202.00
2018-08-19T06:08:41.551Z,96200.00
2018-08-19T06:09:13.696Z,96201.00
2018-08-19T06:09:45.825Z,96201.00
2018-08-19T06:10:17.900Z,96206.00
2018-08-19T06:10:50.045Z,96205.00
2018-08-19T06:11:22.390Z,96200.00
2018-08-19T06:11:54.481Z,96202.00
2018-08-19T06:12:26.566Z,96202.00
2018-08-19T06:12:58.650Z,96207.00
2018-08-19T06:13:30.927Z,96202.00
2018-08-19T06:14:03.021Z,96202.00
2018-08-19T06:14:35.140Z,96204.00
2018-08-19T06:15:07.245Z,96202.00
2018-08-19T06:15:39.340Z,96200.00
2018-08-19T06:16:11.621Z,96199.00
2018-08-19T06:16:43.698Z,96202.00
2018-08-19T06:17:15.988Z,96200.00
2018-08-19T06:17:48.132Z,96202.00